Terminal Aerodrome Forecast
Issued by NWS

Home | Current Version | Previous Version | Text Only | Print | Product List | Glossary On
Versions: 1 2 3 4 5 6 7 8 9 10 11 12 13 14 15 16 17 18 19 20
829
FTUS41 KBGM 281726
TAFITH
TAF
KITH 281726Z 2818/2918 22007KT P6SM FEW250
     FM290000 VRB03KT P6SM BKN150
      TEMPO 2906/2909 -SHRA BKN050 OVC080
     FM290900 VRB03KT P6SM OVC025
     FM291500 30007KT P6SM BKN025=

USA.gov is the U.S. government's official web portal to all federal, state and local government web resources and services.